sensor_id;sensor_type;location;lat;lon;timestamp;P1;durP1;ratioP1;P2;durP2;ratioP2
73276;SDS011;61501;43.316;5.372;2024-03-07T00:02:13;18.23;;;7.05;;
73276;SDS011;61501;43.316;5.372;2024-03-07T00:04:38;13.85;;;6.15;;
73276;SDS011;61501;43.316;5.372;2024-03-07T00:07:04;10.25;;;5.13;;
73276;SDS011;61501;43.316;5.372;2024-03-07T00:09:34;8.20;;;4.10;;
73276;SDS011;61501;43.316;5.372;2024-03-07T00:12:00;7.82;;;4.55;;
73276;SDS011;61501;43.316;5.372;2024-03-07T00:14:26;6.60;;;3.90;;
73276;SDS011;61501;43.316;5.372;2024-03-07T00:16:55;7.55;;;3.83;;
73276;SDS011;61501;43.316;5.372;2024-03-07T00:19:22;8.30;;;4.00;;
73276;SDS011;61501;43.316;5.372;2024-03-07T00:21:58;6.95;;;4.00;;
73276;SDS011;61501;43.316;5.372;2024-03-07T00:24:24;6.40;;;3.45;;
73276;SDS011;61501;43.316;5.372;2024-03-07T00:26:50;8.05;;;3.78;;
73276;SDS011;61501;43.316;5.372;2024-03-07T00:29:16;8.40;;;4.22;;
73276;SDS011;61501;43.316;5.372;2024-03-07T00:31:45;6.72;;;3.90;;
73276;SDS011;61501;43.316;5.372;2024-03-07T00:34:12;6.25;;;3.80;;
73276;SDS011;61501;43.316;5.372;2024-03-07T00:36:39;6.40;;;3.90;;
73276;SDS011;61501;43.316;5.372;2024-03-07T00:39:05;7.72;;;4.20;;
73276;SDS011;61501;43.316;5.372;2024-03-07T00:41:33;6.20;;;3.65;;
73276;SDS011;61501;43.316;5.372;2024-03-07T00:43:59;6.13;;;4.00;;
73276;SDS011;61501;43.316;5.372;2024-03-07T00:46:24;5.25;;;3.80;;
73276;SDS011;61501;43.316;5.372;2024-03-07T00:48:50;5.63;;;4.07;;
73276;SDS011;61501;43.316;5.372;2024-03-07T00:51:16;6.53;;;3.90;;
73276;SDS011;61501;43.316;5.372;2024-03-07T00:53:41;5.60;;;3.97;;
73276;SDS011;61501;43.316;5.372;2024-03-07T00:56:07;7.25;;;4.43;;
73276;SDS011;61501;43.316;5.372;2024-03-07T00:58:32;5.32;;;3.88;;
73276;SDS011;61501;43.316;5.372;2024-03-07T01:00:59;5.43;;;3.97;;
73276;SDS011;61501;43.316;5.372;2024-03-07T01:03:25;6.32;;;4.28;;
73276;SDS011;61501;43.316;5.372;2024-03-07T01:05:52;7.20;;;4.20;;
73276;SDS011;61501;43.316;5.372;2024-03-07T01:08:17;7.10;;;4.13;;
73276;SDS011;61501;43.316;5.372;2024-03-07T01:10:43;6.68;;;4.18;;
73276;SDS011;61501;43.316;5.372;2024-03-07T01:13:09;6.38;;;3.97;;
73276;SDS011;61501;43.316;5.372;2024-03-07T01:15:43;6.65;;;4.55;;
73276;SDS011;61501;43.316;5.372;2024-03-07T01:18:13;7.20;;;4.50;;
73276;SDS011;61501;43.316;5.372;2024-03-07T01:20:39;6.05;;;4.40;;
73276;SDS011;61501;43.316;5.372;2024-03-07T01:23:05;5.88;;;4.03;;
73276;SDS011;61501;43.316;5.372;2024-03-07T01:25:32;5.57;;;4.10;;
73276;SDS011;61501;43.316;5.372;2024-03-07T01:27:59;6.05;;;4.38;;
73276;SDS011;61501;43.316;5.372;2024-03-07T01:30:25;6.60;;;4.53;;
73276;SDS011;61501;43.316;5.372;2024-03-07T01:32:53;5.53;;;3.97;;
73276;SDS011;61501;43.316;5.372;2024-03-07T01:35:19;6.57;;;4.80;;
73276;SDS011;61501;43.316;5.372;2024-03-07T01:37:45;8.98;;;4.25;;
73276;SDS011;61501;43.316;5.372;2024-03-07T01:40:11;6.88;;;4.15;;
73276;SDS011;61501;43.316;5.372;2024-03-07T01:42:39;7.80;;;4.95;;
73276;SDS011;61501;43.316;5.372;2024-03-07T01:45:05;6.38;;;4.72;;
73276;SDS011;61501;43.316;5.372;2024-03-07T01:47:33;8.23;;;4.85;;
73276;SDS011;61501;43.316;5.372;2024-03-07T01:50:01;6.40;;;4.43;;
73276;SDS011;61501;43.316;5.372;2024-03-07T01:52:28;6.60;;;4.47;;
73276;SDS011;61501;43.316;5.372;2024-03-07T01:54:54;6.60;;;3.70;;
73276;SDS011;61501;43.316;5.372;2024-03-07T01:57:20;7.07;;;4.47;;
73276;SDS011;61501;43.316;5.372;2024-03-07T01:59:46;7.07;;;4.05;;
73276;SDS011;61501;43.316;5.372;2024-03-07T02:02:13;6.80;;;3.47;;
73276;SDS011;61501;43.316;5.372;2024-03-07T02:04:39;6.18;;;3.70;;
73276;SDS011;61501;43.316;5.372;2024-03-07T02:07:04;7.93;;;3.75;;
73276;SDS011;61501;43.316;5.372;2024-03-07T02:09:30;5.18;;;3.90;;
73276;SDS011;61501;43.316;5.372;2024-03-07T02:11:56;4.75;;;3.20;;
73276;SDS011;61501;43.316;5.372;2024-03-07T02:14:21;4.40;;;3.10;;
73276;SDS011;61501;43.316;5.372;2024-03-07T02:16:47;5.93;;;3.30;;
73276;SDS011;61501;43.316;5.372;2024-03-07T02:19:14;4.45;;;3.17;;
73276;SDS011;61501;43.316;5.372;2024-03-07T02:21:40;4.53;;;2.83;;
73276;SDS011;61501;43.316;5.372;2024-03-07T02:24:06;4.65;;;3.28;;
73276;SDS011;61501;43.316;5.372;2024-03-07T02:26:31;6.85;;;3.30;;
73276;SDS011;61501;43.316;5.372;2024-03-07T02:28:57;3.90;;;3.13;;
73276;SDS011;61501;43.316;5.372;2024-03-07T02:31:23;4.68;;;3.22;;
73276;SDS011;61501;43.316;5.372;2024-03-07T02:34:00;5.18;;;3.20;;
73276;SDS011;61501;43.316;5.372;2024-03-07T02:36:27;4.63;;;3.15;;
73276;SDS011;61501;43.316;5.372;2024-03-07T02:38:53;5.90;;;4.30;;
73276;SDS011;61501;43.316;5.372;2024-03-07T02:41:19;4.70;;;3.40;;
73276;SDS011;61501;43.316;5.372;2024-03-07T02:43:44;5.38;;;3.95;;
73276;SDS011;61501;43.316;5.372;2024-03-07T02:46:10;5.80;;;3.58;;
73276;SDS011;61501;43.316;5.372;2024-03-07T02:48:37;6.22;;;4.18;;
73276;SDS011;61501;43.316;5.372;2024-03-07T02:51:04;4.88;;;3.70;;
73276;SDS011;61501;43.316;5.372;2024-03-07T02:53:33;6.18;;;4.03;;
73276;SDS011;61501;43.316;5.372;2024-03-07T02:55:58;5.60;;;3.90;;
73276;SDS011;61501;43.316;5.372;2024-03-07T02:58:24;6.78;;;4.25;;
73276;SDS011;61501;43.316;5.372;2024-03-07T03:00:59;6.43;;;4.07;;
73276;SDS011;61501;43.316;5.372;2024-03-07T03:03:25;5.97;;;3.83;;
73276;SDS011;61501;43.316;5.372;2024-03-07T03:05:52;5.07;;;3.85;;
73276;SDS011;61501;43.316;5.372;2024-03-07T03:08:17;4.82;;;3.83;;
73276;SDS011;61501;43.316;5.372;2024-03-07T03:10:43;5.15;;;3.75;;
73276;SDS011;61501;43.316;5.372;2024-03-07T03:13:09;5.03;;;3.40;;
73276;SDS011;61501;43.316;5.372;2024-03-07T03:15:35;4.43;;;3.50;;
73276;SDS011;61501;43.316;5.372;2024-03-07T03:18:03;6.03;;;3.60;;
73276;SDS011;61501;43.316;5.372;2024-03-07T03:20:30;5.32;;;4.00;;
73276;SDS011;61501;43.316;5.372;2024-03-07T03:22:59;6.68;;;3.95;;
73276;SDS011;61501;43.316;5.372;2024-03-07T03:25:25;5.25;;;4.15;;
73276;SDS011;61501;43.316;5.372;2024-03-07T03:27:51;5.93;;;3.72;;
73276;SDS011;61501;43.316;5.372;2024-03-07T03:30:17;5.07;;;3.92;;
73276;SDS011;61501;43.316;5.372;2024-03-07T03:32:44;5.20;;;3.65;;
73276;SDS011;61501;43.316;5.372;2024-03-07T03:35:11;5.82;;;3.40;;
73276;SDS011;61501;43.316;5.372;2024-03-07T03:37:44;5.43;;;3.60;;
73276;SDS011;61501;43.316;5.372;2024-03-07T03:40:11;5.80;;;3.42;;
73276;SDS011;61501;43.316;5.372;2024-03-07T03:42:40;4.65;;;3.25;;
73276;SDS011;61501;43.316;5.372;2024-03-07T03:45:08;5.88;;;3.63;;
73276;SDS011;61501;43.316;5.372;2024-03-07T03:47:39;6.88;;;3.95;;
73276;SDS011;61501;43.316;5.372;2024-03-07T03:50:09;4.55;;;3.05;;
73276;SDS011;61501;43.316;5.372;2024-03-07T03:52:36;4.95;;;3.60;;
73276;SDS011;61501;43.316;5.372;2024-03-07T03:55:02;7.68;;;4.10;;
73276;SDS011;61501;43.316;5.372;2024-03-07T03:57:30;4.80;;;3.20;;
73276;SDS011;61501;43.316;5.372;2024-03-07T03:59:57;7.95;;;3.80;;
73276;SDS011;61501;43.316;5.372;2024-03-07T04:02:23;4.50;;;3.10;;
73276;SDS011;61501;43.316;5.372;2024-03-07T04:04:50;4.25;;;3.20;;
73276;SDS011;61501;43.316;5.372;2024-03-07T04:07:19;5.50;;;3.20;;
73276;SDS011;61501;43.316;5.372;2024-03-07T04:09:45;5.60;;;3.50;;
73276;SDS011;61501;43.316;5.372;2024-03-07T04:12:12;4.53;;;3.15;;
73276;SDS011;61501;43.316;5.372;2024-03-07T04:14:42;7.45;;;3.72;;
73276;SDS011;61501;43.316;5.372;2024-03-07T04:17:08;5.53;;;4.05;;
73276;SDS011;61501;43.316;5.372;2024-03-07T04:19:37;6.70;;;3.35;;
73276;SDS011;61501;43.316;5.372;2024-03-07T04:22:04;4.03;;;3.30;;
73276;SDS011;61501;43.316;5.372;2024-03-07T04:24:30;5.25;;;3.88;;
73276;SDS011;61501;43.316;5.372;2024-03-07T04:26:58;4.57;;;3.60;;
73276;SDS011;61501;43.316;5.372;2024-03-07T04:29:25;5.28;;;3.33;;
73276;SDS011;61501;43.316;5.372;2024-03-07T04:31:51;5.65;;;3.22;;
73276;SDS011;61501;43.316;5.372;2024-03-07T04:34:17;5.63;;;3.58;;
73276;SDS011;61501;43.316;5.372;2024-03-07T04:36:42;4.97;;;3.15;;
73276;SDS011;61501;43.316;5.372;2024-03-07T04:39:08;4.53;;;3.00;;
73276;SDS011;61501;43.316;5.372;2024-03-07T04:41:47;3.92;;;2.78;;
73276;SDS011;61501;43.316;5.372;2024-03-07T04:44:13;4.10;;;2.50;;
73276;SDS011;61501;43.316;5.372;2024-03-07T04:46:39;4.45;;;2.40;;
73276;SDS011;61501;43.316;5.372;2024-03-07T04:49:07;4.13;;;2.30;;
73276;SDS011;61501;43.316;5.372;2024-03-07T04:51:34;2.78;;;2.10;;
73276;SDS011;61501;43.316;5.372;2024-03-07T04:53:59;4.07;;;2.20;;
73276;SDS011;61501;43.316;5.372;2024-03-07T04:56:25;5.28;;;1.92;;
73276;SDS011;61501;43.316;5.372;2024-03-07T04:58:51;2.90;;;2.10;;
73276;SDS011;61501;43.316;5.372;2024-03-07T05:01:17;3.70;;;2.00;;
73276;SDS011;61501;43.316;5.372;2024-03-07T05:03:43;5.22;;;1.98;;
73276;SDS011;61501;43.316;5.372;2024-03-07T05:06:08;2.85;;;1.90;;
73276;SDS011;61501;43.316;5.372;2024-03-07T05:08:34;4.28;;;2.22;;
73276;SDS011;61501;43.316;5.372;2024-03-07T05:11:00;6.72;;;2.30;;
73276;SDS011;61501;43.316;5.372;2024-03-07T05:13:26;5.57;;;2.55;;
73276;SDS011;61501;43.316;5.372;2024-03-07T05:15:51;3.78;;;2.60;;
73276;SDS011;61501;43.316;5.372;2024-03-07T05:18:18;3.47;;;2.40;;
73276;SDS011;61501;43.316;5.372;2024-03-07T05:20:43;4.88;;;2.40;;
73276;SDS011;61501;43.316;5.372;2024-03-07T05:23:09;3.58;;;2.38;;
73276;SDS011;61501;43.316;5.372;2024-03-07T05:25:35;4.82;;;2.85;;
73276;SDS011;61501;43.316;5.372;2024-03-07T05:28:01;5.22;;;2.83;;
73276;SDS011;61501;43.316;5.372;2024-03-07T05:30:27;3.45;;;2.58;;
73276;SDS011;61501;43.316;5.372;2024-03-07T05:32:54;4.25;;;2.80;;
73276;SDS011;61501;43.316;5.372;2024-03-07T05:35:20;4.68;;;2.72;;
73276;SDS011;61501;43.316;5.372;2024-03-07T05:37:46;5.93;;;3.60;;
73276;SDS011;61501;43.316;5.372;2024-03-07T05:40:12;3.88;;;2.80;;
73276;SDS011;61501;43.316;5.372;2024-03-07T05:42:38;4.18;;;2.70;;
73276;SDS011;61501;43.316;5.372;2024-03-07T05:45:03;5.32;;;3.35;;
73276;SDS011;61501;43.316;5.372;2024-03-07T05:47:35;12.73;;;4.22;;
73276;SDS011;61501;43.316;5.372;2024-03-07T05:50:01;4.13;;;2.75;;
73276;SDS011;61501;43.316;5.372;2024-03-07T05:52:26;4.00;;;2.60;;
73276;SDS011;61501;43.316;5.372;2024-03-07T05:54:52;4.80;;;2.85;;
73276;SDS011;61501;43.316;5.372;2024-03-07T05:57:21;3.67;;;2.75;;
73276;SDS011;61501;43.316;5.372;2024-03-07T05:59:47;4.20;;;2.60;;
73276;SDS011;61501;43.316;5.372;2024-03-07T06:02:12;4.18;;;2.95;;
73276;SDS011;61501;43.316;5.372;2024-03-07T06:04:40;5.80;;;3.38;;
73276;SDS011;61501;43.316;5.372;2024-03-07T06:07:08;5.63;;;3.45;;
73276;SDS011;61501;43.316;5.372;2024-03-07T06:09:36;4.78;;;2.63;;
73276;SDS011;61501;43.316;5.372;2024-03-07T06:12:01;4.25;;;2.67;;
73276;SDS011;61501;43.316;5.372;2024-03-07T06:14:29;4.05;;;2.47;;
73276;SDS011;61501;43.316;5.372;2024-03-07T06:16:55;2.95;;;2.20;;
73276;SDS011;61501;43.316;5.372;2024-03-07T06:19:23;5.32;;;2.42;;
73276;SDS011;61501;43.316;5.372;2024-03-07T06:21:48;3.38;;;2.45;;
73276;SDS011;61501;43.316;5.372;2024-03-07T06:24:14;3.55;;;2.53;;
73276;SDS011;61501;43.316;5.372;2024-03-07T06:26:42;3.72;;;2.35;;
73276;SDS011;61501;43.316;5.372;2024-03-07T06:29:28;5.35;;;2.40;;
73276;SDS011;61501;43.316;5.372;2024-03-07T06:31:54;4.00;;;2.42;;
73276;SDS011;61501;43.316;5.372;2024-03-07T06:34:20;4.28;;;2.40;;
73276;SDS011;61501;43.316;5.372;2024-03-07T06:36:46;5.95;;;2.70;;
73276;SDS011;61501;43.316;5.372;2024-03-07T06:39:11;5.30;;;2.50;;
73276;SDS011;61501;43.316;5.372;2024-03-07T06:41:40;4.20;;;2.20;;
73276;SDS011;61501;43.316;5.372;2024-03-07T06:44:10;4.40;;;2.63;;
73276;SDS011;61501;43.316;5.372;2024-03-07T06:46:36;3.72;;;2.30;;
73276;SDS011;61501;43.316;5.372;2024-03-07T06:49:01;4.38;;;2.47;;
73276;SDS011;61501;43.316;5.372;2024-03-07T06:51:27;5.70;;;2.60;;
73276;SDS011;61501;43.316;5.372;2024-03-07T06:53:53;8.70;;;3.00;;
73276;SDS011;61501;43.316;5.372;2024-03-07T06:56:19;4.63;;;2.90;;
73276;SDS011;61501;43.316;5.372;2024-03-07T06:58:44;5.10;;;2.78;;
73276;SDS011;61501;43.316;5.372;2024-03-07T07:01:13;3.97;;;2.95;;
73276;SDS011;61501;43.316;5.372;2024-03-07T07:03:40;4.95;;;3.13;;
73276;SDS011;61501;43.316;5.372;2024-03-07T07:06:08;6.05;;;3.17;;
73276;SDS011;61501;43.316;5.372;2024-03-07T07:08:34;5.60;;;3.80;;
73276;SDS011;61501;43.316;5.372;2024-03-07T07:10:59;6.13;;;4.00;;
73276;SDS011;61501;43.316;5.372;2024-03-07T07:13:25;6.78;;;3.30;;
73276;SDS011;61501;43.316;5.372;2024-03-07T07:15:51;4.85;;;3.55;;
73276;SDS011;61501;43.316;5.372;2024-03-07T07:18:18;5.22;;;3.42;;
73276;SDS011;61501;43.316;5.372;2024-03-07T07:20:44;5.38;;;3.45;;
73276;SDS011;61501;43.316;5.372;2024-03-07T07:23:09;5.55;;;3.28;;
73276;SDS011;61501;43.316;5.372;2024-03-07T07:25:35;6.60;;;3.72;;
73276;SDS011;61501;43.316;5.372;2024-03-07T07:28:01;10.38;;;4.03;;
73276;SDS011;61501;43.316;5.372;2024-03-07T07:30:29;6.60;;;3.40;;
73276;SDS011;61501;43.316;5.372;2024-03-07T07:32:55;5.32;;;3.20;;
73276;SDS011;61501;43.316;5.372;2024-03-07T07:35:21;9.18;;;3.63;;
73276;SDS011;61501;43.316;5.372;2024-03-07T07:37:48;4.53;;;3.30;;
73276;SDS011;61501;43.316;5.372;2024-03-07T07:40:17;8.05;;;3.30;;
73276;SDS011;61501;43.316;5.372;2024-03-07T07:42:44;8.88;;;4.18;;
73276;SDS011;61501;43.316;5.372;2024-03-07T07:45:11;4.85;;;3.45;;
73276;SDS011;61501;43.316;5.372;2024-03-07T07:47:42;4.35;;;3.08;;
73276;SDS011;61501;43.316;5.372;2024-03-07T07:50:09;6.13;;;2.72;;
73276;SDS011;61501;43.316;5.372;2024-03-07T07:52:52;6.68;;;3.72;;
73276;SDS011;61501;43.316;5.372;2024-03-07T07:55:21;4.68;;;3.10;;
73276;SDS011;61501;43.316;5.372;2024-03-07T07:57:49;8.45;;;3.47;;
73276;SDS011;61501;43.316;5.372;2024-03-07T08:00:18;5.35;;;3.45;;
73276;SDS011;61501;43.316;5.372;2024-03-07T08:02:49;5.53;;;3.22;;
73276;SDS011;61501;43.316;5.372;2024-03-07T08:05:25;6.43;;;3.20;;
73276;SDS011;61501;43.316;5.372;2024-03-07T08:07:56;5.07;;;3.03;;
73276;SDS011;61501;43.316;5.372;2024-03-07T08:10:24;5.45;;;2.58;;
73276;SDS011;61501;43.316;5.372;2024-03-07T08:12:51;8.70;;;5.18;;
73276;SDS011;61501;43.316;5.372;2024-03-07T08:15:17;7.68;;;4.10;;
73276;SDS011;61501;43.316;5.372;2024-03-07T08:17:43;6.15;;;3.85;;
73276;SDS011;61501;43.316;5.372;2024-03-07T08:20:13;5.88;;;3.80;;
73276;SDS011;61501;43.316;5.372;2024-03-07T08:22:41;9.13;;;4.40;;
73276;SDS011;61501;43.316;5.372;2024-03-07T08:25:11;7.93;;;3.28;;
73276;SDS011;61501;43.316;5.372;2024-03-07T08:27:38;7.57;;;3.08;;
73276;SDS011;61501;43.316;5.372;2024-03-07T08:30:06;5.75;;;2.83;;
73276;SDS011;61501;43.316;5.372;2024-03-07T08:32:38;4.15;;;2.42;;
73276;SDS011;61501;43.316;5.372;2024-03-07T08:35:05;4.07;;;2.63;;
73276;SDS011;61501;43.316;5.372;2024-03-07T08:37:35;3.75;;;2.75;;
73276;SDS011;61501;43.316;5.372;2024-03-07T08:40:01;4.72;;;2.88;;
73276;SDS011;61501;43.316;5.372;2024-03-07T08:42:29;4.82;;;3.33;;
73276;SDS011;61501;43.316;5.372;2024-03-07T08:44:57;5.13;;;3.00;;
73276;SDS011;61501;43.316;5.372;2024-03-07T08:47:23;4.47;;;2.90;;
73276;SDS011;61501;43.316;5.372;2024-03-07T08:49:49;6.60;;;3.40;;
73276;SDS011;61501;43.316;5.372;2024-03-07T08:52:17;4.45;;;3.15;;
73276;SDS011;61501;43.316;5.372;2024-03-07T08:54:43;5.57;;;2.67;;
73276;SDS011;61501;43.316;5.372;2024-03-07T08:57:09;4.13;;;2.30;;
73276;SDS011;61501;43.316;5.372;2024-03-07T08:59:47;5.93;;;2.78;;
73276;SDS011;61501;43.316;5.372;2024-03-07T09:02:13;5.35;;;2.17;;
73276;SDS011;61501;43.316;5.372;2024-03-07T09:04:40;4.00;;;2.45;;
73276;SDS011;61501;43.316;5.372;2024-03-07T09:07:06;4.30;;;2.50;;
73276;SDS011;61501;43.316;5.372;2024-03-07T09:09:32;6.05;;;3.08;;
73276;SDS011;61501;43.316;5.372;2024-03-07T09:11:59;6.70;;;2.72;;
73276;SDS011;61501;43.316;5.372;2024-03-07T09:14:28;4.82;;;2.80;;
73276;SDS011;61501;43.316;5.372;2024-03-07T09:16:53;6.22;;;3.00;;
73276;SDS011;61501;43.316;5.372;2024-03-07T09:19:19;7.22;;;3.25;;
73276;SDS011;61501;43.316;5.372;2024-03-07T09:21:48;8.38;;;3.17;;
73276;SDS011;61501;43.316;5.372;2024-03-07T09:24:18;5.32;;;3.08;;
73276;SDS011;61501;43.316;5.372;2024-03-07T09:26:51;8.48;;;3.55;;
73276;SDS011;61501;43.316;5.372;2024-03-07T09:29:17;5.53;;;3.25;;
73276;SDS011;61501;43.316;5.372;2024-03-07T09:31:44;6.72;;;3.10;;
73276;SDS011;61501;43.316;5.372;2024-03-07T09:34:20;4.78;;;3.15;;
73276;SDS011;61501;43.316;5.372;2024-03-07T09:36:49;7.38;;;3.38;;
73276;SDS011;61501;43.316;5.372;2024-03-07T09:39:15;11.05;;;3.40;;
73276;SDS011;61501;43.316;5.372;2024-03-07T09:41:41;6.55;;;3.63;;
73276;SDS011;61501;43.316;5.372;2024-03-07T09:44:08;9.35;;;3.95;;
73276;SDS011;61501;43.316;5.372;2024-03-07T09:46:40;3.38;;;1.88;;
73276;SDS011;61501;43.316;5.372;2024-03-07T09:49:06;4.18;;;2.00;;
73276;SDS011;61501;43.316;5.372;2024-03-07T09:51:35;4.03;;;1.70;;
73276;SDS011;61501;43.316;5.372;2024-03-07T09:54:02;3.25;;;1.80;;
73276;SDS011;61501;43.316;5.372;2024-03-07T09:56:27;5.40;;;1.83;;
73276;SDS011;61501;43.316;5.372;2024-03-07T09:58:58;3.10;;;2.00;;
73276;SDS011;61501;43.316;5.372;2024-03-07T10:01:25;3.65;;;1.67;;
73276;SDS011;61501;43.316;5.372;2024-03-07T10:03:57;3.60;;;2.00;;
73276;SDS011;61501;43.316;5.372;2024-03-07T10:06:23;3.08;;;1.77;;
73276;SDS011;61501;43.316;5.372;2024-03-07T10:08:52;3.08;;;1.83;;
73276;SDS011;61501;43.316;5.372;2024-03-07T10:11:18;7.22;;;2.00;;
73276;SDS011;61501;43.316;5.372;2024-03-07T10:13:45;6.32;;;2.22;;
73276;SDS011;61501;43.316;5.372;2024-03-07T10:16:15;10.68;;;3.10;;
73276;SDS011;61501;43.316;5.372;2024-03-07T10:18:42;7.60;;;2.25;;
73276;SDS011;61501;43.316;5.372;2024-03-07T10:21:09;5.43;;;3.28;;
73276;SDS011;61501;43.316;5.372;2024-03-07T10:23:36;4.78;;;2.88;;
73276;SDS011;61501;43.316;5.372;2024-03-07T10:26:03;6.50;;;2.55;;
73276;SDS011;61501;43.316;5.372;2024-03-07T10:28:29;5.80;;;2.40;;
73276;SDS011;61501;43.316;5.372;2024-03-07T10:30:56;9.75;;;2.90;;
73276;SDS011;61501;43.316;5.372;2024-03-07T10:33:26;7.78;;;3.70;;
73276;SDS011;61501;43.316;5.372;2024-03-07T10:35:53;7.78;;;3.53;;
73276;SDS011;61501;43.316;5.372;2024-03-07T10:38:19;3.63;;;2.17;;
73276;SDS011;61501;43.316;5.372;2024-03-07T10:40:53;3.85;;;2.17;;
73276;SDS011;61501;43.316;5.372;2024-03-07T10:43:20;6.00;;;2.20;;
73276;SDS011;61501;43.316;5.372;2024-03-07T10:45:47;5.93;;;2.95;;
73276;SDS011;61501;43.316;5.372;2024-03-07T10:48:17;11.60;;;3.50;;
73276;SDS011;61501;43.316;5.372;2024-03-07T10:59:17;8.32;;;2.40;;
73276;SDS011;61501;43.316;5.372;2024-03-07T11:04:41;1.30;;;0.93;;
73276;SDS011;61501;43.316;5.372;2024-03-07T11:07:08;1.70;;;1.10;;
73276;SDS011;61501;43.316;5.372;2024-03-07T11:09:35;3.75;;;1.60;;
73276;SDS011;61501;43.316;5.372;2024-03-07T11:12:02;6.07;;;3.50;;
73276;SDS011;61501;43.316;5.372;2024-03-07T11:14:29;5.32;;;2.75;;
73276;SDS011;61501;43.316;5.372;2024-03-07T11:16:57;4.25;;;2.30;;
73276;SDS011;61501;43.316;5.372;2024-03-07T11:19:27;2.90;;;1.77;;
73276;SDS011;61501;43.316;5.372;2024-03-07T11:21:55;4.85;;;1.50;;
73276;SDS011;61501;43.316;5.372;2024-03-07T11:24:27;4.63;;;1.67;;
73276;SDS011;61501;43.316;5.372;2024-03-07T11:26:56;3.30;;;1.67;;
73276;SDS011;61501;43.316;5.372;2024-03-07T11:29:41;6.00;;;1.77;;
73276;SDS011;61501;43.316;5.372;2024-03-07T11:32:09;2.88;;;1.65;;
73276;SDS011;61501;43.316;5.372;2024-03-07T11:34:39;4.45;;;1.73;;
73276;SDS011;61501;43.316;5.372;2024-03-07T11:37:06;4.90;;;1.73;;
73276;SDS011;61501;43.316;5.372;2024-03-07T11:39:42;2.72;;;1.70;;
73276;SDS011;61501;43.316;5.372;2024-03-07T11:42:24;5.40;;;1.80;;
73276;SDS011;61501;43.316;5.372;2024-03-07T11:44:56;3.38;;;1.80;;
73276;SDS011;61501;43.316;5.372;2024-03-07T11:47:26;2.85;;;1.60;;
73276;SDS011;61501;43.316;5.372;2024-03-07T11:50:00;2.20;;;1.20;;
73276;SDS011;61501;43.316;5.372;2024-03-07T11:52:27;3.50;;;1.40;;
73276;SDS011;61501;43.316;5.372;2024-03-07T11:54:53;3.30;;;1.48;;
73276;SDS011;61501;43.316;5.372;2024-03-07T11:57:28;2.47;;;1.25;;
73276;SDS011;61501;43.316;5.372;2024-03-07T12:00:00;3.53;;;1.40;;
73276;SDS011;61501;43.316;5.372;2024-03-07T12:04:59;3.92;;;1.60;;
73276;SDS011;61501;43.316;5.372;2024-03-07T12:07:25;2.55;;;0.98;;
73276;SDS011;61501;43.316;5.372;2024-03-07T12:09:52;1.63;;;1.08;;
73276;SDS011;61501;43.316;5.372;2024-03-07T12:12:21;1.95;;;0.90;;
73276;SDS011;61501;43.316;5.372;2024-03-07T12:14:47;3.00;;;1.00;;
73276;SDS011;61501;43.316;5.372;2024-03-07T12:17:13;4.40;;;1.30;;
73276;SDS011;61501;43.316;5.372;2024-03-07T12:19:42;1.70;;;1.10;;
73276;SDS011;61501;43.316;5.372;2024-03-07T12:22:09;3.13;;;1.33;;
73276;SDS011;61501;43.316;5.372;2024-03-07T12:24:38;2.90;;;1.10;;
73276;SDS011;61501;43.316;5.372;2024-03-07T12:27:06;2.20;;;1.15;;
73276;SDS011;61501;43.316;5.372;2024-03-07T12:29:35;1.85;;;1.15;;
73276;SDS011;61501;43.316;5.372;2024-03-07T12:32:07;1.70;;;0.90;;
73276;SDS011;61501;43.316;5.372;2024-03-07T12:34:35;2.42;;;1.10;;
73276;SDS011;61501;43.316;5.372;2024-03-07T12:37:05;3.47;;;1.10;;
73276;SDS011;61501;43.316;5.372;2024-03-07T12:39:35;2.10;;;1.13;;
73276;SDS011;61501;43.316;5.372;2024-03-07T12:42:03;3.65;;;1.63;;
73276;SDS011;61501;43.316;5.372;2024-03-07T12:44:40;3.58;;;1.10;;
73276;SDS011;61501;43.316;5.372;2024-03-07T12:47:11;2.60;;;1.30;;
73276;SDS011;61501;43.316;5.372;2024-03-07T12:49:38;1.95;;;1.00;;
73276;SDS011;61501;43.316;5.372;2024-03-07T12:52:05;2.65;;;1.38;;
73276;SDS011;61501;43.316;5.372;2024-03-07T12:54:33;1.85;;;1.30;;
73276;SDS011;61501;43.316;5.372;2024-03-07T12:56:59;2.85;;;1.63;;
73276;SDS011;61501;43.316;5.372;2024-03-07T12:59:25;2.17;;;1.10;;
73276;SDS011;61501;43.316;5.372;2024-03-07T13:01:51;2.28;;;1.35;;
73276;SDS011;61501;43.316;5.372;2024-03-07T13:04:17;6.15;;;2.08;;
73276;SDS011;61501;43.316;5.372;2024-03-07T13:06:42;3.20;;;1.27;;
73276;SDS011;61501;43.316;5.372;2024-03-07T13:09:09;3.47;;;1.42;;
73276;SDS011;61501;43.316;5.372;2024-03-07T13:11:37;3.13;;;1.25;;
73276;SDS011;61501;43.316;5.372;2024-03-07T13:14:06;2.45;;;1.10;;
73276;SDS011;61501;43.316;5.372;2024-03-07T13:16:32;3.55;;;1.80;;
73276;SDS011;61501;43.316;5.372;2024-03-07T13:18:59;5.13;;;1.40;;
73276;SDS011;61501;43.316;5.372;2024-03-07T13:21:24;2.20;;;1.10;;
73276;SDS011;61501;43.316;5.372;2024-03-07T13:23:52;3.00;;;1.00;;
73276;SDS011;61501;43.316;5.372;2024-03-07T13:26:20;2.70;;;1.05;;
73276;SDS011;61501;43.316;5.372;2024-03-07T13:28:53;2.65;;;1.40;;
73276;SDS011;61501;43.316;5.372;2024-03-07T13:31:19;3.50;;;1.48;;
73276;SDS011;61501;43.316;5.372;2024-03-07T13:33:45;1.77;;;1.02;;
73276;SDS011;61501;43.316;5.372;2024-03-07T13:36:11;1.73;;;1.00;;
73276;SDS011;61501;43.316;5.372;2024-03-07T13:38:39;2.60;;;0.90;;
73276;SDS011;61501;43.316;5.372;2024-03-07T13:41:05;2.67;;;1.02;;
73276;SDS011;61501;43.316;5.372;2024-03-07T13:43:31;3.08;;;0.90;;
73276;SDS011;61501;43.316;5.372;2024-03-07T13:46:00;2.38;;;0.90;;
73276;SDS011;61501;43.316;5.372;2024-03-07T13:48:25;1.92;;;0.90;;
73276;SDS011;61501;43.316;5.372;2024-03-07T13:50:51;2.17;;;0.95;;
73276;SDS011;61501;43.316;5.372;2024-03-07T13:53:19;3.08;;;1.00;;
73276;SDS011;61501;43.316;5.372;2024-03-07T13:55:57;2.30;;;1.17;;
73276;SDS011;61501;43.316;5.372;2024-03-07T14:03:55;2.50;;;1.10;;
73276;SDS011;61501;43.316;5.372;2024-03-07T14:15:36;1.48;;;1.10;;
73276;SDS011;61501;43.316;5.372;2024-03-07T14:32:58;4.03;;;1.63;;
73276;SDS011;61501;43.316;5.372;2024-03-07T14:41:17;2.25;;;1.50;;
73276;SDS011;61501;43.316;5.372;2024-03-07T14:43:44;2.75;;;1.48;;
73276;SDS011;61501;43.316;5.372;2024-03-07T14:46:10;3.03;;;1.33;;
73276;SDS011;61501;43.316;5.372;2024-03-07T14:48:42;2.08;;;1.20;;
73276;SDS011;61501;43.316;5.372;2024-03-07T14:51:08;2.33;;;1.10;;
73276;SDS011;61501;43.316;5.372;2024-03-07T14:53:45;4.80;;;1.10;;
73276;SDS011;61501;43.316;5.372;2024-03-07T14:56:11;1.73;;;0.95;;
73276;SDS011;61501;43.316;5.372;2024-03-07T14:58:37;2.50;;;1.00;;
73276;SDS011;61501;43.316;5.372;2024-03-07T15:01:03;2.53;;;1.30;;
73276;SDS011;61501;43.316;5.372;2024-03-07T15:03:31;4.75;;;1.60;;
73276;SDS011;61501;43.316;5.372;2024-03-07T15:05:57;4.93;;;1.55;;
73276;SDS011;61501;43.316;5.372;2024-03-07T15:08:23;3.35;;;1.63;;
73276;SDS011;61501;43.316;5.372;2024-03-07T15:10:52;2.38;;;1.17;;
73276;SDS011;61501;43.316;5.372;2024-03-07T15:13:22;3.75;;;1.52;;
73276;SDS011;61501;43.316;5.372;2024-03-07T15:15:48;2.95;;;1.50;;
73276;SDS011;61501;43.316;5.372;2024-03-07T15:18:13;2.40;;;1.20;;
73276;SDS011;61501;43.316;5.372;2024-03-07T15:20:39;3.10;;;1.38;;
73276;SDS011;61501;43.316;5.372;2024-03-07T15:23:06;3.50;;;1.40;;
73276;SDS011;61501;43.316;5.372;2024-03-07T15:25:32;3.70;;;1.50;;
73276;SDS011;61501;43.316;5.372;2024-03-07T15:27:58;3.58;;;1.55;;
73276;SDS011;61501;43.316;5.372;2024-03-07T15:30:25;3.88;;;1.50;;
73276;SDS011;61501;43.316;5.372;2024-03-07T15:32:57;4.47;;;2.20;;
73276;SDS011;61501;43.316;5.372;2024-03-07T15:35:23;4.25;;;1.70;;
73276;SDS011;61501;43.316;5.372;2024-03-07T15:37:51;4.50;;;1.42;;
73276;SDS011;61501;43.316;5.372;2024-03-07T15:40:18;2.90;;;1.17;;